createdAt,value
2022-12-03T00:01:23.433Z,19.00
2022-12-03T00:03:51.403Z,21.30
2022-12-03T00:06:19.373Z,19.40
2022-12-03T00:08:47.222Z,20.80
2022-12-03T00:11:14.998Z,19.20
2022-12-03T00:13:42.726Z,20.60
2022-12-03T00:16:10.531Z,20.80
2022-12-03T00:18:38.498Z,19.40
2022-12-03T00:21:06.508Z,19.80
2022-12-03T00:23:40.186Z,21.30
2022-12-03T00:26:09.985Z,22.00
2022-12-03T00:28:37.741Z,22.70
2022-12-03T00:31:05.743Z,20.60
2022-12-03T00:33:33.496Z,18.90
2022-12-03T00:36:01.196Z,21.50
2022-12-03T00:38:29.100Z,19.60
2022-12-03T00:40:56.824Z,20.60
2022-12-03T00:43:25.172Z,21.50
2022-12-03T00:45:53.003Z,19.10
2022-12-03T00:48:20.870Z,20.70
2022-12-03T00:50:48.622Z,19.20
2022-12-03T00:53:16.478Z,20.20
2022-12-03T00:55:44.178Z,21.60
2022-12-03T00:58:11.943Z,21.30
2022-12-03T01:00:39.612Z,22.30
2022-12-03T01:03:07.458Z,20.50
2022-12-03T01:05:35.236Z,19.70
2022-12-03T01:08:03.107Z,20.50
2022-12-03T01:10:31.047Z,20.20
2022-12-03T01:12:58.851Z,21.40
2022-12-03T01:15:26.642Z,18.90
2022-12-03T01:17:54.485Z,20.30
2022-12-03T01:20:22.617Z,17.00
2022-12-03T01:22:50.682Z,19.60
2022-12-03T01:25:18.450Z,20.90
2022-12-03T01:27:46.333Z,21.40
2022-12-03T01:30:14.807Z,19.00
2022-12-03T01:32:42.653Z,19.00
2022-12-03T01:35:10.582Z,19.80
2022-12-03T01:37:38.303Z,19.60
2022-12-03T01:40:09.655Z,19.60
2022-12-03T01:42:40.856Z,20.20
2022-12-03T01:45:21.307Z,21.80
2022-12-03T01:47:49.311Z,21.60
2022-12-03T01:50:30.481Z,19.40
2022-12-03T01:53:01.828Z,21.20
2022-12-03T01:55:29.915Z,18.90
2022-12-03T01:58:01.051Z,21.90
2022-12-03T02:00:29.966Z,20.50
2022-12-03T02:03:04.254Z,19.00
2022-12-03T02:05:33.889Z,21.40
2022-12-03T02:08:02.221Z,20.50
2022-12-03T02:10:36.122Z,19.00
2022-12-03T02:13:09.052Z,22.10
2022-12-03T02:15:39.573Z,20.80
2022-12-03T02:18:08.931Z,21.60
2022-12-03T02:20:51.740Z,19.40
2022-12-03T02:23:40.827Z,20.10
2022-12-03T02:26:08.898Z,18.20
2022-12-03T02:28:38.210Z,20.80
2022-12-03T02:31:06.553Z,19.90
2022-12-03T02:33:36.391Z,19.00
2022-12-03T02:36:04.884Z,20.20
2022-12-03T02:38:35.180Z,18.00
2022-12-03T02:41:07.944Z,20.00
2022-12-03T02:43:35.978Z,20.00
2022-12-03T02:46:05.045Z,20.50
2022-12-03T02:48:36.209Z,18.60
2022-12-03T02:51:08.777Z,21.10
2022-12-03T02:53:44.666Z,18.80
2022-12-03T02:56:16.685Z,21.30
2022-12-03T02:58:47.300Z,21.10
2022-12-03T03:01:15.915Z,19.40
2022-12-03T03:03:45.868Z,18.90
2022-12-03T03:06:16.115Z,20.10
2022-12-03T03:08:44.214Z,20.30
2022-12-03T03:11:12.229Z,18.70
2022-12-03T03:13:40.476Z,20.00
2022-12-03T03:16:09.271Z,22.20
2022-12-03T03:18:37.445Z,19.70
2022-12-03T03:21:06.380Z,17.90
2022-12-03T03:23:34.874Z,18.60
2022-12-03T03:26:08.428Z,19.60
2022-12-03T03:28:39.343Z,19.30
2022-12-03T03:31:09.093Z,19.90
2022-12-03T03:33:39.380Z,18.20
2022-12-03T03:36:07.783Z,19.50
2022-12-03T03:38:37.261Z,17.50
2022-12-03T03:41:06.440Z,18.20
2022-12-03T03:43:35.860Z,19.70
2022-12-03T03:46:05.556Z,19.00
2022-12-03T03:48:35.542Z,19.50
2022-12-03T03:51:09.092Z,19.20
2022-12-03T03:53:40.376Z,18.10
2022-12-03T03:56:09.758Z,17.90
2022-12-03T03:58:38.216Z,20.10
2022-12-03T04:01:06.791Z,19.60
2022-12-03T04:03:35.386Z,16.50
2022-12-03T04:06:03.227Z,19.90
2022-12-03T04:08:31.256Z,18.30
2022-12-03T04:11:17.349Z,19.10
2022-12-03T04:13:45.066Z,17.20
2022-12-03T04:16:12.872Z,18.30
2022-12-03T04:18:43.234Z,18.10
2022-12-03T04:21:33.289Z,18.20
2022-12-03T04:24:01.677Z,19.80
2022-12-03T04:26:48.041Z,16.50
2022-12-03T04:29:16.092Z,17.70
2022-12-03T04:32:02.184Z,19.00
2022-12-03T04:34:48.402Z,17.00
2022-12-03T04:37:16.379Z,18.60
2022-12-03T04:39:44.320Z,18.20
2022-12-03T04:42:12.021Z,17.30
2022-12-03T04:44:39.899Z,16.20
2022-12-03T04:47:16.198Z,18.90
2022-12-03T04:49:46.723Z,16.30
2022-12-03T04:52:16.082Z,18.00
2022-12-03T04:54:44.157Z,17.20
2022-12-03T04:57:12.658Z,16.70
2022-12-03T04:59:40.431Z,17.40
2022-12-03T05:02:09.208Z,19.70
2022-12-03T05:04:37.491Z,19.40
2022-12-03T05:07:05.241Z,19.20
2022-12-03T05:09:33.086Z,18.30
2022-12-03T05:12:00.934Z,18.50
2022-12-03T05:14:28.921Z,18.70
2022-12-03T05:16:56.755Z,18.10
2022-12-03T05:19:44.649Z,19.30
2022-12-03T05:22:12.368Z,18.80
2022-12-03T05:24:40.145Z,19.60
2022-12-03T05:27:07.932Z,19.10
2022-12-03T05:29:35.673Z,19.10
2022-12-03T05:32:04.537Z,18.00
2022-12-03T05:34:32.202Z,16.10
2022-12-03T05:36:59.984Z,17.30
2022-12-03T05:39:27.684Z,18.60
2022-12-03T05:42:14.066Z,17.30
2022-12-03T05:44:41.928Z,15.90
2022-12-03T05:47:09.639Z,17.30
2022-12-03T05:49:37.420Z,17.80
2022-12-03T05:52:05.268Z,17.70
2022-12-03T05:54:32.972Z,16.10
2022-12-03T05:57:00.833Z,16.90
2022-12-03T05:59:28.568Z,15.70
2022-12-03T06:01:56.408Z,17.80
2022-12-03T06:04:24.156Z,17.40
2022-12-03T06:06:51.881Z,17.80
2022-12-03T06:09:19.595Z,18.50
2022-12-03T06:11:47.306Z,17.60
2022-12-03T06:14:15.070Z,17.10
2022-12-03T06:16:42.906Z,16.40
2022-12-03T06:19:10.740Z,18.20
2022-12-03T06:21:38.560Z,17.20
2022-12-03T06:24:06.411Z,16.30
2022-12-03T06:26:34.192Z,17.40
2022-12-03T06:29:01.957Z,16.40
2022-12-03T06:31:29.912Z,16.70
2022-12-03T06:33:57.697Z,17.30
2022-12-03T06:36:27.672Z,18.50
2022-12-03T06:38:55.357Z,17.20
2022-12-03T06:41:23.229Z,15.70
2022-12-03T06:43:50.972Z,16.10
2022-12-03T06:46:18.805Z,16.30
2022-12-03T06:48:46.721Z,16.80
2022-12-03T06:51:14.461Z,17.30
2022-12-03T06:53:42.249Z,15.70
2022-12-03T06:56:10.133Z,16.70
2022-12-03T06:58:38.181Z,14.90
2022-12-03T07:01:06.116Z,18.30
2022-12-03T07:03:33.857Z,16.70
2022-12-03T07:06:01.791Z,16.70
2022-12-03T07:08:29.564Z,16.90
2022-12-03T07:10:57.306Z,18.20
2022-12-03T07:13:24.988Z,17.50
2022-12-03T07:15:52.748Z,16.30
2022-12-03T07:18:20.493Z,18.50
2022-12-03T07:20:49.477Z,15.40
2022-12-03T07:23:17.227Z,17.10
2022-12-03T07:25:45.013Z,16.80
2022-12-03T07:28:12.780Z,17.00
2022-12-03T07:30:40.634Z,16.20
2022-12-03T07:33:08.305Z,18.80
2022-12-03T07:35:36.020Z,15.70
2022-12-03T07:38:03.711Z,17.00
2022-12-03T07:40:31.410Z,17.40
2022-12-03T07:42:59.151Z,16.60
2022-12-03T07:45:26.868Z,17.40
2022-12-03T07:47:54.579Z,17.70
2022-12-03T07:50:22.396Z,17.00
2022-12-03T07:52:50.120Z,19.20
2022-12-03T07:55:17.968Z,16.90
2022-12-03T07:57:45.704Z,17.10
2022-12-03T08:00:14.755Z,18.30
2022-12-03T08:02:42.572Z,18.70
2022-12-03T08:05:11.682Z,19.10
2022-12-03T08:07:39.811Z,20.90
2022-12-03T08:10:08.254Z,27.30
2022-12-03T08:12:41.632Z,22.60
2022-12-03T08:15:18.752Z,18.20
2022-12-03T08:17:53.261Z,17.80
2022-12-03T08:20:24.169Z,17.80
2022-12-03T08:22:53.728Z,18.60
2022-12-03T08:25:24.615Z,17.20
2022-12-03T08:27:56.983Z,17.60
2022-12-03T08:30:24.746Z,17.40
2022-12-03T08:32:52.715Z,18.50
2022-12-03T08:35:27.050Z,17.30
2022-12-03T08:38:01.549Z,18.80
2022-12-03T08:40:44.264Z,17.50
2022-12-03T08:43:25.337Z,17.80
2022-12-03T08:45:55.113Z,17.50
2022-12-03T08:48:40.704Z,18.40
2022-12-03T08:51:27.670Z,18.60
2022-12-03T08:54:02.067Z,15.10
2022-12-03T08:56:33.669Z,18.70
2022-12-03T08:59:14.047Z,17.50
2022-12-03T09:01:43.978Z,17.40
2022-12-03T09:04:22.911Z,16.50
2022-12-03T09:06:51.773Z,18.80
2022-12-03T09:09:20.570Z,17.20
2022-12-03T09:11:48.453Z,16.90
2022-12-03T09:14:18.847Z,19.00
2022-12-03T09:16:48.040Z,16.60
2022-12-03T09:19:16.357Z,20.50
2022-12-03T09:21:44.746Z,21.10
2022-12-03T09:24:12.598Z,16.50
2022-12-03T09:26:40.832Z,18.80
2022-12-03T09:29:12.155Z,16.90
2022-12-03T09:31:40.866Z,18.20
2022-12-03T09:34:08.741Z,18.50
2022-12-03T09:36:36.504Z,17.80
2022-12-03T09:39:04.455Z,16.90
2022-12-03T09:41:32.349Z,18.20
2022-12-03T09:44:05.611Z,17.40
2022-12-03T09:46:37.771Z,18.00
2022-12-03T09:51:43.999Z,16.40
2022-12-03T09:54:22.793Z,16.90
2022-12-03T09:56:51.273Z,16.60
2022-12-03T09:59:19.272Z,15.60
2022-12-03T10:01:47.340Z,18.70
2022-12-03T10:04:15.452Z,17.30
2022-12-03T10:06:46.013Z,18.50
2022-12-03T10:09:17.646Z,17.20
2022-12-03T10:11:45.403Z,17.20
2022-12-03T10:14:15.400Z,17.60
2022-12-03T10:16:43.826Z,17.90
2022-12-03T10:19:24.311Z,18.70
2022-12-03T10:21:52.097Z,18.50
2022-12-03T10:24:29.157Z,19.00
2022-12-03T10:27:21.724Z,17.10
2022-12-03T10:30:02.789Z,17.70
2022-12-03T10:32:43.539Z,17.60
2022-12-03T10:35:19.155Z,17.40
2022-12-03T10:37:56.679Z,19.40
2022-12-03T10:40:30.590Z,19.30
2022-12-03T10:43:21.601Z,19.50
2022-12-03T10:45:50.571Z,17.80
2022-12-03T10:48:21.482Z,18.30
2022-12-03T10:50:54.721Z,19.00
2022-12-03T10:53:31.618Z,19.00
2022-12-03T10:56:03.149Z,20.30
2022-12-03T10:58:35.621Z,18.30
2022-12-03T11:01:13.463Z,20.30
2022-12-03T11:06:15.244Z,19.20
2022-12-03T11:08:56.338Z,17.70
2022-12-03T11:11:28.917Z,21.20
2022-12-03T11:14:02.238Z,18.80
2022-12-03T11:16:53.021Z,18.60
2022-12-03T11:19:43.920Z,21.50
2022-12-03T11:22:18.586Z,20.40
2022-12-03T11:24:47.272Z,22.00
2022-12-03T11:27:19.930Z,20.20
2022-12-03T11:29:50.851Z,20.50
2022-12-03T11:32:37.811Z,21.40
2022-12-03T11:35:24.648Z,20.80
2022-12-03T11:37:54.173Z,19.50
2022-12-03T11:40:23.205Z,22.80
2022-12-03T11:42:53.695Z,22.60
2022-12-03T11:45:30.610Z,22.00
2022-12-03T11:48:00.273Z,21.90
2022-12-03T11:50:39.419Z,21.80
2022-12-03T11:53:26.825Z,20.30
2022-12-03T11:56:11.212Z,20.60
2022-12-03T11:58:44.179Z,20.10
2022-12-03T12:01:15.444Z,20.80
2022-12-03T12:03:49.597Z,23.00
2022-12-03T12:06:20.831Z,19.50
2022-12-03T12:08:52.267Z,20.70
2022-12-03T12:11:33.582Z,22.10
2022-12-03T12:14:12.268Z,23.20
2022-12-03T12:16:53.502Z,25.40
2022-12-03T12:19:43.679Z,20.10
2022-12-03T12:24:47.928Z,22.30
2022-12-03T12:27:29.596Z,21.20
2022-12-03T12:30:01.647Z,20.70
2022-12-03T12:32:33.392Z,21.50
2022-12-03T12:37:58.949Z,22.10
2022-12-03T12:40:30.619Z,22.10
2022-12-03T12:43:04.141Z,23.10
2022-12-03T12:45:42.076Z,20.70
2022-12-03T12:48:10.384Z,22.50
2022-12-03T12:50:40.692Z,22.20
2022-12-03T12:53:13.464Z,22.20
2022-12-03T12:55:41.961Z,23.30
2022-12-03T12:58:19.030Z,24.60
2022-12-03T13:00:54.307Z,23.90
2022-12-03T13:03:28.959Z,22.50
2022-12-03T13:05:57.938Z,20.60
2022-12-03T13:08:29.203Z,21.80
2022-12-03T13:10:59.882Z,24.20
2022-12-03T13:13:44.272Z,23.10
2022-12-03T13:16:23.182Z,23.00
2022-12-03T13:18:55.694Z,23.50
2022-12-03T13:21:44.356Z,22.50
2022-12-03T13:24:38.339Z,21.00
2022-12-03T13:27:18.514Z,22.30
2022-12-03T13:30:07.379Z,23.70
2022-12-03T13:32:41.702Z,19.00
2022-12-03T13:35:10.555Z,24.00
2022-12-03T13:37:39.534Z,24.60
2022-12-03T13:40:23.363Z,24.40
2022-12-03T13:42:53.906Z,22.70
2022-12-03T13:45:30.014Z,23.60
2022-12-03T13:48:14.499Z,22.10
2022-12-03T13:50:50.611Z,22.50
2022-12-03T13:53:28.449Z,24.10
2022-12-03T13:56:04.278Z,23.30
2022-12-03T13:58:33.009Z,24.20
2022-12-03T14:01:02.439Z,22.90
2022-12-03T14:03:31.419Z,22.90
2022-12-03T14:05:59.745Z,25.70
2022-12-03T14:08:29.620Z,25.10
2022-12-03T14:11:00.906Z,24.30
2022-12-03T14:13:29.544Z,24.30
2022-12-03T14:15:58.754Z,24.70
2022-12-03T14:18:27.667Z,24.90
2022-12-03T14:20:56.832Z,23.50
2022-12-03T14:23:25.513Z,27.70
2022-12-03T14:25:54.008Z,22.70
2022-12-03T14:28:21.933Z,23.70
2022-12-03T14:30:49.705Z,24.90
2022-12-03T14:33:17.649Z,24.90
2022-12-03T14:35:45.340Z,25.00
2022-12-03T14:38:13.011Z,26.40
2022-12-03T14:40:40.732Z,26.20
2022-12-03T14:43:08.922Z,24.20
2022-12-03T14:45:36.728Z,24.60
2022-12-03T14:48:04.597Z,23.30
2022-12-03T14:50:32.317Z,23.20
2022-12-03T14:53:00.139Z,25.00
2022-12-03T14:55:27.877Z,25.80
2022-12-03T14:57:55.623Z,25.80
2022-12-03T15:00:23.371Z,26.40
2022-12-03T15:02:51.101Z,25.40
2022-12-03T15:05:28.017Z,26.10
2022-12-03T15:07:56.608Z,26.60
2022-12-03T15:10:24.404Z,26.20
2022-12-03T15:12:52.221Z,28.30
2022-12-03T15:15:20.084Z,27.40
2022-12-03T15:17:47.848Z,26.40
2022-12-03T15:20:15.773Z,29.70
2022-12-03T15:22:43.579Z,32.00
2022-12-03T15:25:11.489Z,30.30
2022-12-03T15:27:39.215Z,30.70
2022-12-03T15:30:08.118Z,27.10
2022-12-03T15:32:35.873Z,27.20
2022-12-03T15:35:03.740Z,25.50
2022-12-03T15:37:31.476Z,27.80
2022-12-03T15:39:59.504Z,29.70
2022-12-03T15:42:29.766Z,26.90
2022-12-03T15:44:57.549Z,27.00
2022-12-03T15:47:25.664Z,26.90
2022-12-03T15:49:53.601Z,27.80
2022-12-03T15:52:21.652Z,26.60
2022-12-03T15:54:49.816Z,27.10
2022-12-03T15:57:17.796Z,27.00
2022-12-03T15:59:45.497Z,26.80
2022-12-03T16:02:13.459Z,28.60
2022-12-03T16:04:41.595Z,28.80
2022-12-03T16:07:09.584Z,29.40
2022-12-03T16:09:37.529Z,26.10
2022-12-03T16:12:05.647Z,28.00
2022-12-03T16:14:33.368Z,28.40
2022-12-03T16:17:01.180Z,28.90
2022-12-03T16:19:29.014Z,31.70
2022-12-03T16:21:56.774Z,28.00
2022-12-03T16:24:24.511Z,26.90
2022-12-03T16:26:52.283Z,26.30
2022-12-03T16:29:20.058Z,28.10
2022-12-03T16:31:47.814Z,29.00
2022-12-03T16:34:15.775Z,27.50
2022-12-03T16:36:45.698Z,28.60
2022-12-03T16:39:13.564Z,27.90
2022-12-03T16:41:41.257Z,30.80
2022-12-03T16:44:19.833Z,26.70
2022-12-03T16:46:47.648Z,28.60
2022-12-03T16:49:15.567Z,28.90
2022-12-03T16:51:43.283Z,33.90
2022-12-03T16:54:11.793Z,29.80
2022-12-03T16:56:39.572Z,31.00
2022-12-03T16:59:07.268Z,31.20
2022-12-03T17:01:35.173Z,30.30
2022-12-03T17:04:02.973Z,29.10
2022-12-03T17:06:30.827Z,28.20
2022-12-03T17:08:58.526Z,31.10
2022-12-03T17:11:26.312Z,31.60
2022-12-03T17:13:54.025Z,39.30
2022-12-03T17:16:21.933Z,34.30
2022-12-03T17:18:49.745Z,33.20
2022-12-03T17:21:17.715Z,33.20
2022-12-03T17:23:48.971Z,33.60
2022-12-03T17:26:18.235Z,33.10
2022-12-03T17:28:46.215Z,34.60
2022-12-03T17:31:14.066Z,32.50
2022-12-03T17:33:41.877Z,37.10
2022-12-03T17:36:10.395Z,33.00
2022-12-03T17:38:39.386Z,33.70
2022-12-03T17:41:07.807Z,29.30
2022-12-03T17:43:36.113Z,31.30
2022-12-03T17:46:05.349Z,35.50
2022-12-03T17:48:33.394Z,32.40
2022-12-03T17:51:01.739Z,34.30
2022-12-03T17:53:29.505Z,30.70
2022-12-03T17:55:57.259Z,31.70
2022-12-03T17:58:26.865Z,26.20
2022-12-03T18:00:58.710Z,33.30
2022-12-03T18:03:30.975Z,28.70
2022-12-03T18:05:58.739Z,30.20
2022-12-03T18:08:26.452Z,29.60
2022-12-03T18:10:54.699Z,33.10
2022-12-03T18:13:22.588Z,30.80
2022-12-03T18:15:50.440Z,32.80
2022-12-03T18:18:18.285Z,23.30
2022-12-03T18:20:46.252Z,26.40
2022-12-03T18:23:14.015Z,29.50
2022-12-03T18:25:42.308Z,29.20
2022-12-03T18:28:10.003Z,28.90
2022-12-03T18:30:37.767Z,29.40
2022-12-03T18:33:05.581Z,28.40
2022-12-03T18:35:33.547Z,33.70
2022-12-03T18:38:01.720Z,30.30
2022-12-03T18:40:29.488Z,28.70
2022-12-03T18:42:57.474Z,28.60
2022-12-03T18:45:25.201Z,29.00
2022-12-03T18:47:52.930Z,27.00
2022-12-03T18:50:20.947Z,29.20
2022-12-03T18:52:48.614Z,32.60
2022-12-03T18:55:21.851Z,32.20
2022-12-03T18:57:49.591Z,30.20
2022-12-03T19:00:18.342Z,31.90
2022-12-03T19:03:02.266Z,32.50
2022-12-03T19:05:33.331Z,28.30
2022-12-03T19:08:02.032Z,28.50
2022-12-03T19:10:29.849Z,30.90
2022-12-03T19:12:57.850Z,31.10
2022-12-03T19:15:25.616Z,33.80
2022-12-03T19:17:53.373Z,29.10
2022-12-03T19:20:21.223Z,30.50
2022-12-03T19:22:48.987Z,29.10
2022-12-03T19:25:16.774Z,28.90
2022-12-03T19:27:44.476Z,29.40
2022-12-03T19:30:13.045Z,29.90
2022-12-03T19:32:40.818Z,28.40
2022-12-03T19:35:11.190Z,27.80
2022-12-03T19:37:39.063Z,30.00
2022-12-03T19:40:10.269Z,27.20
2022-12-03T19:42:39.841Z,27.20
2022-12-03T19:45:09.405Z,27.40
2022-12-03T19:47:37.375Z,25.90
2022-12-03T19:50:06.051Z,27.50
2022-12-03T19:52:35.874Z,29.20
2022-12-03T19:55:04.254Z,28.20
2022-12-03T19:57:32.023Z,25.80
2022-12-03T20:00:01.248Z,31.70
2022-12-03T20:02:29.249Z,28.20
2022-12-03T20:04:57.259Z,30.90
2022-12-03T20:07:25.123Z,30.80
2022-12-03T20:09:53.323Z,31.40
2022-12-03T20:12:21.574Z,28.80
2022-12-03T20:14:50.255Z,28.30
2022-12-03T20:17:18.019Z,26.20
2022-12-03T20:19:45.727Z,28.60
2022-12-03T20:22:13.544Z,31.30
2022-12-03T20:24:41.409Z,42.40
2022-12-03T20:27:09.143Z,35.10
2022-12-03T20:29:36.887Z,34.50
2022-12-03T20:32:07.045Z,30.60
2022-12-03T20:34:36.062Z,30.30
2022-12-03T20:37:03.920Z,30.60
2022-12-03T20:39:31.784Z,31.10
2022-12-03T20:41:59.554Z,28.70
2022-12-03T20:44:27.584Z,25.20
2022-12-03T20:46:56.094Z,34.40
2022-12-03T20:49:24.197Z,30.00
2022-12-03T20:51:52.133Z,27.70
2022-12-03T20:54:19.848Z,21.00
2022-12-03T20:56:47.904Z,26.00
2022-12-03T20:59:17.135Z,26.80
2022-12-03T21:01:45.462Z,30.80
2022-12-03T21:04:13.795Z,23.40
2022-12-03T21:06:42.599Z,27.10
2022-12-03T21:09:12.210Z,26.40
2022-12-03T21:11:42.669Z,27.30
2022-12-03T21:14:11.391Z,25.10
2022-12-03T21:17:07.163Z,28.20
2022-12-03T21:19:31.116Z,22.60
2022-12-03T21:21:58.975Z,25.60
2022-12-03T21:24:26.799Z,24.50
2022-12-03T21:26:54.608Z,22.20
2022-12-03T21:29:23.264Z,24.00
2022-12-03T21:31:51.362Z,24.20
2022-12-03T21:34:19.333Z,24.90
2022-12-03T21:36:47.406Z,27.10
2022-12-03T21:39:15.182Z,22.70
2022-12-03T21:42:33.270Z,24.60
2022-12-03T21:44:31.383Z,24.30
2022-12-03T21:47:09.832Z,20.40
2022-12-03T21:49:41.607Z,23.40
2022-12-03T21:52:10.798Z,23.20
2022-12-03T21:54:38.607Z,26.40
2022-12-03T21:57:06.707Z,23.50
2022-12-03T21:59:34.508Z,25.60
